Time;durP1;ratioP1;P1;durP2;ratioP2;P2;SDS_P1;SDS_P2;PMS_P1;PMS_P2;Temp;Humidity;BMP_temperature;BMP_pressure;BME280_temperature;BME280_humidity;BME280_pressure;Samples;Min_cycle;Max_cycle;Signal;HPM_P1;HPM_P2
2022/03/15 00:02:24;;;;;;;9.80;6.10;;;;;;;;;;5070592;28;20044;-76
2022/03/15 00:04:50;;;;;;;10.30;5.20;;;;;;;;;;5053670;28;20107;-77
2022/03/15 00:07:16;;;;;;;13.30;6.38;;;;;;;;;;5053965;28;20032;-77
2022/03/15 00:09:43;;;;;;;12.98;5.47;;;;;;;;;;5053764;28;20032;-77
2022/03/15 00:12:10;;;;;;;10.88;6.03;;;;;;;;;;5053574;28;20044;-77
2022/03/15 00:14:43;;;;;;;11.20;5.75;;;;;;;;;;5053290;28;20057;-77
2022/03/15 00:17:09;;;;;;;14.27;5.32;;;;;;;;;;5070096;28;20541;-77
2022/03/15 00:19:35;;;;;;;12.50;5.72;;;;;;;;;;5070119;28;20040;-77
2022/03/15 00:22:04;;;;;;;12.00;6.10;;;;;;;;;;5053526;28;20040;-77
2022/03/15 00:24:30;;;;;;;17.25;6.70;;;;;;;;;;5069998;28;20119;-77
2022/03/15 00:26:57;;;;;;;10.82;5.90;;;;;;;;;;5053452;28;20162;-77
2022/03/15 00:29:23;;;;;;;14.88;6.82;;;;;;;;;;5053563;28;20040;-77
2022/03/15 00:31:49;;;;;;;17.27;5.90;;;;;;;;;;5070317;28;20043;-77
2022/03/15 00:34:16;;;;;;;16.70;7.10;;;;;;;;;;5053130;28;20048;-77
2022/03/15 00:36:42;;;;;;;13.60;6.75;;;;;;;;;;5069933;28;20036;-77
2022/03/15 00:39:08;;;;;;;15.93;7.80;;;;;;;;;;5070027;28;20044;-77
2022/03/15 00:41:34;;;;;;;10.38;6.10;;;;;;;;;;5052255;28;20044;-77
2022/03/15 00:44:01;;;;;;;13.27;7.10;;;;;;;;;;5068338;28;20060;-77
2022/03/15 00:46:27;;;;;;;15.45;7.00;;;;;;;;;;5052117;28;20405;-77
2022/03/15 00:48:53;;;;;;;13.73;7.05;;;;;;;;;;5071042;28;20044;-77
2022/03/15 00:51:19;;;;;;;17.92;7.43;;;;;;;;;;5056220;28;20032;-77
2022/03/15 00:53:45;;;;;;;15.63;6.68;;;;;;;;;;5056260;28;20052;-77
2022/03/15 00:56:11;;;;;;;15.00;6.70;;;;;;;;;;5072810;28;20044;-77
2022/03/15 00:58:37;;;;;;;22.73;7.40;;;;;;;;;;5056316;28;20047;-77
2022/03/15 01:01:03;;;;;;;17.27;8.57;;;;;;;;;;5056169;28;20048;-77
2022/03/15 01:03:29;;;;;;;16.88;7.60;;;;;;;;;;5055794;28;20036;-77
2022/03/15 01:05:55;;;;;;;20.48;8.02;;;;;;;;;;5055840;28;20072;-76
2022/03/15 01:08:21;;;;;;;19.40;9.65;;;;;;;;;;5072599;28;20036;-77
2022/03/15 01:10:47;;;;;;;23.17;9.25;;;;;;;;;;5072385;28;20083;-77
2022/03/15 01:13:13;;;;;;;19.00;9.45;;;;;;;;;;5072311;28;20032;-77
2022/03/15 01:15:43;;;;;;;16.15;9.80;;;;;;;;;;5055603;28;20052;-77
2022/03/15 01:18:10;;;;;;;18.20;9.30;;;;;;;;;;5055508;28;20041;-77
2022/03/15 01:20:39;;;;;;;19.35;9.60;;;;;;;;;;5072131;28;20508;-77
2022/03/15 01:23:05;;;;;;;18.40;9.27;;;;;;;;;;5072529;28;20067;-77
2022/03/15 01:25:31;;;;;;;19.38;9.82;;;;;;;;;;5072159;28;20033;-77
2022/03/15 01:27:57;;;;;;;24.90;10.43;;;;;;;;;;5072159;28;20044;-77
2022/03/15 01:30:23;;;;;;;20.13;9.90;;;;;;;;;;5072008;28;20043;-77
2022/03/15 01:32:49;;;;;;;20.92;10.30;;;;;;;;;;5071991;28;20036;-77
2022/03/15 01:35:15;;;;;;;19.45;9.55;;;;;;;;;;5072088;28;20042;-77
2022/03/15 01:37:41;;;;;;;24.35;10.55;;;;;;;;;;5072186;28;20066;-77
2022/03/15 01:40:08;;;;;;;21.40;10.10;;;;;;;;;;5055168;28;20102;-77
2022/03/15 01:42:34;;;;;;;20.60;9.95;;;;;;;;;;5055048;28;20048;-77
2022/03/15 01:45:02;;;;;;;22.80;10.88;;;;;;;;;;5055027;28;20076;-77
2022/03/15 01:47:28;;;;;;;21.95;11.18;;;;;;;;;;5054981;28;20063;-77
2022/03/15 01:49:54;;;;;;;25.25;11.70;;;;;;;;;;5071597;28;20446;-77
2022/03/15 01:52:20;;;;;;;29.45;12.48;;;;;;;;;;5055256;28;20108;-77
2022/03/15 01:54:46;;;;;;;28.83;12.60;;;;;;;;;;5071655;28;20075;-77
2022/03/15 01:57:13;;;;;;;27.30;12.52;;;;;;;;;;5071735;28;20047;-77
2022/03/15 01:59:39;;;;;;;28.98;12.85;;;;;;;;;;5054716;28;20431;-77
2022/03/15 02:02:06;;;;;;;22.48;12.10;;;;;;;;;;5054956;28;20555;-77
2022/03/15 02:04:32;;;;;;;24.05;12.85;;;;;;;;;;5054618;28;21089;-77
2022/03/15 02:07:02;;;;;;;22.00;12.77;;;;;;;;;;5068740;28;20036;-77
2022/03/15 02:09:28;;;;;;;24.88;13.30;;;;;;;;;;5071299;28;20028;-77
2022/03/15 02:11:54;;;;;;;23.02;11.35;;;;;;;;;;5071495;28;20051;-77
2022/03/15 02:14:20;;;;;;;22.90;11.48;;;;;;;;;;5054734;28;20048;-77
2022/03/15 02:16:46;;;;;;;28.23;12.32;;;;;;;;;;5054649;28;20050;-77
2022/03/15 02:19:12;;;;;;;22.63;10.45;;;;;;;;;;5071274;28;20127;-77
2022/03/15 02:21:39;;;;;;;20.50;10.63;;;;;;;;;;5071187;28;20044;-77
2022/03/15 02:24:06;;;;;;;20.50;10.70;;;;;;;;;;5054361;28;20748;-77
2022/03/15 02:26:31;;;;;;;21.67;11.27;;;;;;;;;;5071248;28;20493;-77
2022/03/15 02:28:57;;;;;;;21.73;10.95;;;;;;;;;;5051709;28;20077;-77
2022/03/15 02:31:24;;;;;;;21.40;11.60;;;;;;;;;;5054601;28;20139;-77
2022/03/15 02:33:50;;;;;;;22.83;11.23;;;;;;;;;;5071139;28;20040;-77
2022/03/15 02:36:16;;;;;;;24.38;11.52;;;;;;;;;;5054310;28;20571;-77
2022/03/15 02:38:42;;;;;;;23.25;11.57;;;;;;;;;;5070900;28;20036;-76
2022/03/15 02:41:08;;;;;;;24.65;11.98;;;;;;;;;;5070704;28;20076;-76
2022/03/15 02:43:35;;;;;;;21.80;11.05;;;;;;;;;;5053807;28;20075;-76
2022/03/15 02:46:01;;;;;;;21.38;11.65;;;;;;;;;;5053907;28;20052;-77
2022/03/15 02:48:27;;;;;;;32.90;12.57;;;;;;;;;;5054199;28;20048;-77
2022/03/15 02:50:53;;;;;;;24.13;11.65;;;;;;;;;;5070587;28;20044;-77
2022/03/15 02:53:19;;;;;;;23.55;12.13;;;;;;;;;;5070754;28;20134;-77
2022/03/15 02:55:48;;;;;;;31.05;11.88;;;;;;;;;;5070544;28;20253;-77
2022/03/15 02:58:14;;;;;;;21.70;11.38;;;;;;;;;;5053637;28;20481;-77
2022/03/15 03:00:41;;;;;;;20.80;11.27;;;;;;;;;;5053660;28;20043;-77
2022/03/15 03:03:07;;;;;;;19.75;11.20;;;;;;;;;;5070538;28;20076;-77
2022/03/15 03:05:33;;;;;;;20.35;11.15;;;;;;;;;;5070112;28;20105;-77
2022/03/15 03:08:00;;;;;;;24.25;11.85;;;;;;;;;;5054093;28;20067;-77
2022/03/15 03:10:26;;;;;;;23.98;11.20;;;;;;;;;;5070115;28;20044;-77
2022/03/15 03:12:52;;;;;;;20.92;11.38;;;;;;;;;;5069886;28;20400;-77
2022/03/15 03:15:22;;;;;;;19.92;11.85;;;;;;;;;;5050896;28;20500;-77
2022/03/15 03:17:48;;;;;;;23.27;12.15;;;;;;;;;;5070009;28;20036;-77
2022/03/15 03:20:19;;;;;;;23.70;11.75;;;;;;;;;;5053214;28;20123;-77
2022/03/15 03:22:46;;;;;;;20.45;11.32;;;;;;;;;;5069852;28;20044;-77
2022/03/15 03:25:12;;;;;;;22.90;11.93;;;;;;;;;;5053078;28;20595;-77
2022/03/15 03:27:38;;;;;;;21.13;11.85;;;;;;;;;;5053382;28;20094;-78
2022/03/15 03:30:04;;;;;;;24.92;11.75;;;;;;;;;;5053454;28;20132;-77
2022/03/15 03:32:30;;;;;;;17.80;10.57;;;;;;;;;;5069698;28;20392;-77
2022/03/15 03:34:57;;;;;;;26.00;12.52;;;;;;;;;;5069622;28;20094;-77
2022/03/15 03:37:23;;;;;;;21.63;11.95;;;;;;;;;;5069728;28;20039;-76
2022/03/15 03:39:51;;;;;;;19.13;11.65;;;;;;;;;;5069357;28;20041;-76
2022/03/15 03:42:17;;;;;;;23.45;11.65;;;;;;;;;;5053108;28;21009;-77
2022/03/15 03:44:43;;;;;;;24.20;11.95;;;;;;;;;;5052738;28;20120;-77
2022/03/15 03:47:09;;;;;;;20.35;9.88;;;;;;;;;;5069813;28;20037;-77
2022/03/15 03:49:36;;;;;;;18.60;9.85;;;;;;;;;;5054134;28;20143;-77
2022/03/15 03:52:02;;;;;;;19.40;11.00;;;;;;;;;;5070877;28;20071;-77
2022/03/15 03:54:28;;;;;;;21.80;11.13;;;;;;;;;;5053954;28;20056;-77
2022/03/15 03:56:54;;;;;;;23.30;11.43;;;;;;;;;;5054265;28;20040;-76
2022/03/15 03:59:20;;;;;;;19.67;10.70;;;;;;;;;;5070480;28;20044;-76
2022/03/15 04:01:46;;;;;;;20.77;11.18;;;;;;;;;;5051671;28;20456;-76
2022/03/15 04:04:12;;;;;;;18.55;10.30;;;;;;;;;;5053658;28;20408;-77
2022/03/15 04:06:39;;;;;;;18.48;10.40;;;;;;;;;;5070216;28;20048;-77
2022/03/15 04:09:05;;;;;;;18.05;10.07;;;;;;;;;;5070376;28;20076;-76
2022/03/15 04:11:32;;;;;;;21.17;10.57;;;;;;;;;;5053622;28;20123;-77
2022/03/15 04:14:03;;;;;;;25.25;9.75;;;;;;;;;;5070291;28;20381;-77
2022/03/15 04:16:29;;;;;;;20.92;10.90;;;;;;;;;;5053610;28;20048;-77
2022/03/15 04:18:56;;;;;;;24.90;12.00;;;;;;;;;;5053812;28;20094;-77
2022/03/15 04:21:24;;;;;;;21.60;11.25;;;;;;;;;;5053847;28;20500;-77
2022/03/15 04:23:54;;;;;;;22.42;12.32;;;;;;;;;;5069595;28;20106;-77
2022/03/15 04:26:21;;;;;;;25.25;12.40;;;;;;;;;;5070572;28;20072;-77
2022/03/15 04:28:48;;;;;;;23.98;12.07;;;;;;;;;;5053567;28;20037;-77
2022/03/15 04:31:14;;;;;;;23.58;12.05;;;;;;;;;;5053683;28;20043;-77
2022/03/15 04:33:40;;;;;;;26.40;13.48;;;;;;;;;;5053610;28;20041;-77
2022/03/15 04:36:06;;;;;;;23.40;12.00;;;;;;;;;;5070488;28;20102;-77
2022/03/15 04:38:32;;;;;;;25.45;12.55;;;;;;;;;;5053369;28;20040;-76
2022/03/15 04:40:59;;;;;;;24.67;12.02;;;;;;;;;;5053484;28;20080;-76
2022/03/15 04:43:25;;;;;;;25.65;12.10;;;;;;;;;;5069973;28;20142;-76
2022/03/15 04:45:51;;;;;;;21.35;12.27;;;;;;;;;;5053062;28;20524;-76
2022/03/15 04:48:20;;;;;;;22.08;11.05;;;;;;;;;;5070186;28;20032;-76
2022/03/15 04:50:46;;;;;;;25.00;11.70;;;;;;;;;;5070274;28;20048;-76
2022/03/15 04:53:12;;;;;;;23.90;12.20;;;;;;;;;;5053260;28;20044;-76
2022/03/15 04:55:38;;;;;;;22.83;11.40;;;;;;;;;;5053643;28;20542;-76
2022/03/15 04:58:04;;;;;;;20.67;11.35;;;;;;;;;;5053526;28;20126;-76
2022/03/15 05:00:30;;;;;;;21.23;10.77;;;;;;;;;;5053189;28;20082;-76
2022/03/15 05:02:56;;;;;;;23.75;11.05;;;;;;;;;;5069902;28;20041;-76
2022/03/15 05:05:22;;;;;;;16.02;10.23;;;;;;;;;;5069746;28;20116;-77
2022/03/15 05:07:48;;;;;;;22.77;10.85;;;;;;;;;;5069878;28;20068;-77
2022/03/15 05:13:00;;;;;;;24.52;11.63;;;;;;;;;;5070072;28;20547;-77
2022/03/15 05:15:26;;;;;;;23.77;12.07;;;;;;;;;;5069698;28;20106;-77
2022/03/15 05:17:52;;;;;;;29.85;12.32;;;;;;;;;;5069796;28;20040;-76
2022/03/15 05:20:18;;;;;;;24.17;13.05;;;;;;;;;;5053127;28;20051;-76
2022/03/15 05:22:44;;;;;;;27.52;12.18;;;;;;;;;;5069686;28;20097;-76
2022/03/15 05:25:11;;;;;;;22.27;11.75;;;;;;;;;;5069516;28;20582;-77
2022/03/15 05:27:38;;;;;;;28.45;13.10;;;;;;;;;;5069708;28;20063;-77
2022/03/15 05:30:04;;;;;;;28.20;12.98;;;;;;;;;;5069676;28;20164;-76
2022/03/15 05:32:30;;;;;;;33.38;12.95;;;;;;;;;;5052806;28;20119;-76
2022/03/15 05:34:56;;;;;;;28.58;12.93;;;;;;;;;;5071857;28;20496;-76
2022/03/15 05:37:23;;;;;;;26.73;14.18;;;;;;;;;;5073606;28;20082;-77
2022/03/15 05:39:49;;;;;;;28.05;15.15;;;;;;;;;;5073153;28;20131;-76
2022/03/15 05:42:17;;;;;;;31.33;14.77;;;;;;;;;;5056462;28;20555;-76
2022/03/15 05:44:43;;;;;;;28.70;14.73;;;;;;;;;;5072583;28;20052;-77
2022/03/15 05:47:09;;;;;;;27.63;13.57;;;;;;;;;;5056392;28;20046;-77
2022/03/15 05:49:35;;;;;;;36.35;15.02;;;;;;;;;;5073143;28;20032;-77
2022/03/15 05:52:03;;;;;;;35.63;15.10;;;;;;;;;;5073177;28;20136;-77
2022/03/15 05:54:29;;;;;;;28.60;13.60;;;;;;;;;;5073217;28;20052;-77
2022/03/15 05:56:55;;;;;;;30.05;13.80;;;;;;;;;;5056518;28;20051;-76
2022/03/15 05:59:21;;;;;;;27.85;14.05;;;;;;;;;;5056267;28;20516;-77
2022/03/15 06:01:47;;;;;;;27.35;13.50;;;;;;;;;;5072793;28;20036;-77
2022/03/15 06:04:13;;;;;;;27.00;15.48;;;;;;;;;;5055993;28;20516;-77
2022/03/15 06:06:39;;;;;;;33.65;15.07;;;;;;;;;;5072841;28;20041;-76
2022/03/15 06:09:05;;;;;;;30.40;14.80;;;;;;;;;;5056123;28;20373;-76
2022/03/15 06:11:32;;;;;;;37.63;15.27;;;;;;;;;;5055793;28;20477;-76
2022/03/15 06:13:58;;;;;;;34.13;16.15;;;;;;;;;;5072490;28;20040;-76
2022/03/15 06:16:24;;;;;;;26.27;14.68;;;;;;;;;;5055549;28;20063;-76
2022/03/15 06:18:50;;;;;;;31.40;15.68;;;;;;;;;;5056221;28;20094;-76
2022/03/15 06:21:16;;;;;;;35.03;16.67;;;;;;;;;;5055710;28;20048;-76
2022/03/15 06:23:42;;;;;;;29.92;16.10;;;;;;;;;;5072704;28;20037;-76
2022/03/15 06:26:09;;;;;;;41.20;16.35;;;;;;;;;;5055917;28;20392;-77
2022/03/15 06:28:35;;;;;;;38.88;16.80;;;;;;;;;;5072316;28;20040;-76
2022/03/15 06:31:02;;;;;;;37.97;17.30;;;;;;;;;;5073027;28;20043;-76
2022/03/15 06:33:28;;;;;;;41.67;17.77;;;;;;;;;;5056293;28;20041;-76
2022/03/15 06:35:54;;;;;;;37.85;18.08;;;;;;;;;;5072118;28;20036;-76
2022/03/15 06:38:20;;;;;;;39.38;16.75;;;;;;;;;;5072630;28;20048;-76
2022/03/15 06:40:47;;;;;;;33.88;16.52;;;;;;;;;;5055442;28;20044;-76
2022/03/15 06:43:13;;;;;;;43.05;18.92;;;;;;;;;;5055277;28;20072;-76
2022/03/15 06:45:41;;;;;;;38.45;17.48;;;;;;;;;;5054330;28;20127;-76
2022/03/15 06:48:07;;;;;;;35.42;16.42;;;;;;;;;;5072046;28;20044;-76
2022/03/15 06:50:33;;;;;;;40.95;18.10;;;;;;;;;;5055277;28;20106;-76
2022/03/15 06:52:59;;;;;;;36.60;17.70;;;;;;;;;;5052486;28;20498;-76
2022/03/15 06:55:26;;;;;;;37.13;16.80;;;;;;;;;;5068219;28;20131;-76
2022/03/15 06:57:52;;;;;;;38.97;18.13;;;;;;;;;;5067973;28;20079;-76
2022/03/15 07:00:18;;;;;;;40.22;18.25;;;;;;;;;;5070120;28;20032;-76
2022/03/15 07:02:44;;;;;;;41.88;17.90;;;;;;;;;;5069639;28;20405;-76
2022/03/15 07:05:11;;;;;;;43.05;18.33;;;;;;;;;;5052474;28;20497;-76
2022/03/15 07:07:37;;;;;;;43.10;18.88;;;;;;;;;;5051746;28;20048;-76
2022/03/15 07:10:09;;;;;;;42.17;20.20;;;;;;;;;;5067676;28;20636;-76
2022/03/15 07:12:35;;;;;;;48.75;20.02;;;;;;;;;;5067909;28;20124;-77
2022/03/15 07:15:02;;;;;;;44.72;19.75;;;;;;;;;;5051252;28;20062;-77
2022/03/15 07:17:30;;;;;;;49.83;19.40;;;;;;;;;;5068149;28;20480;-76
2022/03/15 07:19:57;;;;;;;45.88;19.88;;;;;;;;;;5068065;28;20126;-76
2022/03/15 07:22:24;;;;;;;50.17;20.92;;;;;;;;;;5067584;28;20050;-77
2022/03/15 07:24:50;;;;;;;45.85;20.92;;;;;;;;;;5050868;28;20079;-76
2022/03/15 07:27:16;;;;;;;47.58;20.95;;;;;;;;;;5070724;28;20041;-76
2022/03/15 07:29:42;;;;;;;67.28;28.48;;;;;;;;;;5054657;28;20036;-76
2022/03/15 07:32:08;;;;;;;40.60;19.48;;;;;;;;;;5054398;28;20036;-77
2022/03/15 07:34:34;;;;;;;36.00;16.95;;;;;;;;;;5054609;28;20445;-76
2022/03/15 07:37:00;;;;;;;45.60;18.33;;;;;;;;;;5054242;28;20041;-76
2022/03/15 07:39:26;;;;;;;57.38;20.63;;;;;;;;;;5070880;28;20530;-76
2022/03/15 07:41:53;;;;;;;44.20;20.00;;;;;;;;;;5070836;28;20040;-76
2022/03/15 07:44:19;;;;;;;45.40;19.98;;;;;;;;;;5070638;28;20557;-76
2022/03/15 07:46:48;;;;;;;41.67;19.80;;;;;;;;;;5070806;28;20072;-76
2022/03/15 07:49:17;;;;;;;37.97;19.98;;;;;;;;;;5070853;28;20045;-76
2022/03/15 07:51:44;;;;;;;42.47;20.23;;;;;;;;;;5054930;28;20551;-77
2022/03/15 07:54:10;;;;;;;45.22;21.13;;;;;;;;;;5071205;28;20476;-77
2022/03/15 07:56:36;;;;;;;67.20;29.13;;;;;;;;;;5071054;28;20079;-76
2022/03/15 07:59:02;;;;;;;87.50;35.55;;;;;;;;;;5054734;28;20071;-76
2022/03/15 08:01:28;;;;;;;59.15;25.55;;;;;;;;;;5054023;28;20036;-76
2022/03/15 08:03:54;;;;;;;50.00;20.70;;;;;;;;;;5070386;28;20121;-77
2022/03/15 08:06:20;;;;;;;44.55;20.38;;;;;;;;;;5054352;28;20183;-76
2022/03/15 08:08:48;;;;;;;48.25;20.35;;;;;;;;;;5071660;28;20101;-76
2022/03/15 08:11:14;;;;;;;49.50;21.77;;;;;;;;;;5054272;28;20046;-77
2022/03/15 08:13:40;;;;;;;49.33;21.77;;;;;;;;;;5053725;28;20087;-77
2022/03/15 08:16:06;;;;;;;47.35;20.33;;;;;;;;;;5053613;28;20446;-77
2022/03/15 08:18:35;;;;;;;51.45;19.80;;;;;;;;;;5053671;28;20048;-77
2022/03/15 08:21:01;;;;;;;43.33;20.13;;;;;;;;;;5053685;28;20036;-77
2022/03/15 08:23:28;;;;;;;45.53;20.10;;;;;;;;;;5070207;28;20036;-77
2022/03/15 08:25:58;;;;;;;45.65;21.98;;;;;;;;;;5053659;28;20072;-77
2022/03/15 08:28:24;;;;;;;50.85;20.65;;;;;;;;;;5053379;28;20037;-77
2022/03/15 08:30:51;;;;;;;48.53;21.50;;;;;;;;;;5054222;28;20039;-77
2022/03/15 08:33:17;;;;;;;48.42;22.00;;;;;;;;;;5070126;28;20499;-77
2022/03/15 08:35:43;;;;;;;47.88;21.60;;;;;;;;;;5051853;28;20045;-77
2022/03/15 08:38:11;;;;;;;48.90;22.42;;;;;;;;;;5068711;28;20524;-76
2022/03/15 08:40:37;;;;;;;50.53;22.77;;;;;;;;;;5053012;28;20036;-77
2022/03/15 08:43:04;;;;;;;45.13;21.08;;;;;;;;;;5053319;28;20047;-77
2022/03/15 08:45:30;;;;;;;45.45;21.25;;;;;;;;;;5053219;28;20072;-77
2022/03/15 08:47:56;;;;;;;50.17;22.75;;;;;;;;;;5053549;28;20048;-77
2022/03/15 08:50:22;;;;;;;48.25;23.70;;;;;;;;;;5053493;28;20097;-77
2022/03/15 08:52:48;;;;;;;50.58;25.35;;;;;;;;;;5069975;28;20044;-77
2022/03/15 08:55:14;;;;;;;42.60;20.58;;;;;;;;;;5070099;28;20344;-77
2022/03/15 08:57:40;;;;;;;48.80;22.95;;;;;;;;;;5069931;28;20040;-77
2022/03/15 09:00:08;;;;;;;42.08;21.73;;;;;;;;;;5053443;28;20048;-77
2022/03/15 09:02:34;;;;;;;45.97;22.58;;;;;;;;;;5053072;28;20493;-77
2022/03/15 09:05:00;;;;;;;47.05;23.38;;;;;;;;;;5053164;28;20051;-76
2022/03/15 09:07:27;;;;;;;48.83;23.83;;;;;;;;;;5057938;28;20123;-76
2022/03/15 09:09:53;;;;;;;41.30;20.15;;;;;;;;;;5061717;28;20041;-77
2022/03/15 09:12:20;;;;;;;42.75;21.70;;;;;;;;;;5037370;28;20037;-77
2022/03/15 09:14:46;;;;;;;50.10;22.63;;;;;;;;;;5036770;28;20115;-77
2022/03/15 09:17:12;;;;;;;40.50;20.20;;;;;;;;;;5038418;28;20055;-77
2022/03/15 09:19:40;;;;;;;40.50;21.35;;;;;;;;;;5063759;28;20053;-76
2022/03/15 09:22:07;;;;;;;39.30;21.15;;;;;;;;;;5037004;28;20079;-77
2022/03/15 09:24:35;;;;;;;46.50;23.40;;;;;;;;;;5037093;28;20132;-77
2022/03/15 09:27:01;;;;;;;47.63;22.15;;;;;;;;;;5053436;28;20397;-77
2022/03/15 09:29:27;;;;;;;46.22;21.67;;;;;;;;;;5042932;28;20037;-76
2022/03/15 09:31:53;;;;;;;38.35;19.42;;;;;;;;;;5071576;28;20044;-77
2022/03/15 09:34:21;;;;;;;45.90;20.95;;;;;;;;;;5057129;28;20036;-76
2022/03/15 09:36:47;;;;;;;44.75;21.60;;;;;;;;;;5057411;28;20358;-77
2022/03/15 09:39:13;;;;;;;43.13;21.38;;;;;;;;;;5074439;28;20051;-76
2022/03/15 09:41:40;;;;;;;47.88;22.58;;;;;;;;;;5073973;28;20040;-76
2022/03/15 09:44:08;;;;;;;41.28;20.60;;;;;;;;;;5057479;28;20080;-77
2022/03/15 09:46:38;;;;;;;43.40;21.95;;;;;;;;;;5074496;28;20052;-77
2022/03/15 09:49:06;;;;;;;43.38;19.85;;;;;;;;;;5073928;28;20049;-77
2022/03/15 09:51:33;;;;;;;40.78;20.52;;;;;;;;;;5073870;28;20075;-76
2022/03/15 09:53:59;;;;;;;47.15;21.05;;;;;;;;;;5073939;28;20485;-77
2022/03/15 09:56:25;;;;;;;44.13;21.75;;;;;;;;;;5057393;28;20051;-77
2022/03/15 09:58:51;;;;;;;42.45;22.10;;;;;;;;;;5056977;28;20044;-77
2022/03/15 10:01:18;;;;;;;36.38;20.67;;;;;;;;;;5056689;28;20123;-77
2022/03/15 10:03:45;;;;;;;43.90;20.42;;;;;;;;;;5073374;28;20130;-77
2022/03/15 10:06:11;;;;;;;40.35;21.40;;;;;;;;;;5073497;28;20419;-77
2022/03/15 10:08:37;;;;;;;40.58;20.92;;;;;;;;;;5073267;28;20033;-77
2022/03/15 10:11:03;;;;;;;41.58;20.40;;;;;;;;;;5056746;28;20400;-77
2022/03/15 10:13:29;;;;;;;39.58;21.45;;;;;;;;;;5073745;28;20036;-77
2022/03/15 10:16:03;;;;;;;40.50;21.20;;;;;;;;;;5056577;28;20056;-76
2022/03/15 10:18:29;;;;;;;40.50;21.02;;;;;;;;;;5056826;28;20515;-77
2022/03/15 10:20:55;;;;;;;41.88;21.77;;;;;;;;;;5056879;28;20040;-77
2022/03/15 10:23:29;;;;;;;37.00;20.23;;;;;;;;;;5056865;28;20346;-77
2022/03/15 10:25:56;;;;;;;43.60;20.33;;;;;;;;;;5056497;28;20045;-77
2022/03/15 10:28:22;;;;;;;39.33;18.63;;;;;;;;;;5073371;28;20036;-77
2022/03/15 10:30:49;;;;;;;38.00;19.35;;;;;;;;;;5073333;28;20032;-76
2022/03/15 10:33:16;;;;;;;35.65;20.30;;;;;;;;;;5056428;28;20043;-77
2022/03/15 10:35:43;;;;;;;41.78;21.10;;;;;;;;;;5056094;28;20123;-77
2022/03/15 10:38:10;;;;;;;38.50;20.60;;;;;;;;;;5065401;28;20052;-77
2022/03/15 10:40:39;;;;;;;36.63;19.58;;;;;;;;;;5052932;28;20056;-77
2022/03/15 10:43:09;;;;;;;43.35;21.00;;;;;;;;;;5056196;28;20044;-76
2022/03/15 10:45:36;;;;;;;44.50;22.33;;;;;;;;;;5056199;28;20048;-76
2022/03/15 10:48:03;;;;;;;46.88;21.55;;;;;;;;;;5056364;28;20123;-78
2022/03/15 10:50:30;;;;;;;40.67;21.70;;;;;;;;;;5056091;28;20041;-77
2022/03/15 10:52:56;;;;;;;46.55;22.02;;;;;;;;;;5072458;28;20094;-77
2022/03/15 10:55:28;;;;;;;44.72;22.27;;;;;;;;;;5072458;28;20546;-77
2022/03/15 10:57:58;;;;;;;39.95;20.88;;;;;;;;;;5072580;28;20469;-77
2022/03/15 11:00:27;;;;;;;38.40;20.17;;;;;;;;;;5072485;28;20057;-77
2022/03/15 11:02:53;;;;;;;37.95;20.23;;;;;;;;;;5072633;28;20055;-77
2022/03/15 11:05:27;;;;;;;40.97;20.85;;;;;;;;;;5055673;28;20041;-76
2022/03/15 11:07:53;;;;;;;38.03;20.40;;;;;;;;;;5072455;28;20124;-74
2022/03/15 11:10:20;;;;;;;40.50;21.02;;;;;;;;;;5072648;28;20454;-77
2022/03/15 11:13:02;;;;;;;41.88;21.40;;;;;;;;;;5072595;28;20125;-77
2022/03/15 11:15:30;;;;;;;43.20;18.92;;;;;;;;;;5057617;28;20086;-77
2022/03/15 11:18:06;;;;;;;36.40;20.08;;;;;;;;;;5044871;28;20053;-76
2022/03/15 11:20:39;;;;;;;35.60;18.67;;;;;;;;;;5041608;28;20033;-77
2022/03/15 11:23:07;;;;;;;34.53;18.65;;;;;;;;;;5072098;28;20075;-77
2022/03/15 11:25:55;;;;;;;36.92;18.52;;;;;;;;;;5055325;28;20041;-78
2022/03/15 11:28:24;;;;;;;41.95;21.45;;;;;;;;;;5055315;28;20430;-77
2022/03/15 11:30:51;;;;;;;40.42;22.02;;;;;;;;;;5071923;28;20040;-77
2022/03/15 11:33:17;;;;;;;38.65;21.13;;;;;;;;;;5054398;28;20492;-77
2022/03/15 11:35:44;;;;;;;41.35;20.25;;;;;;;;;;5071020;28;20408;-77
2022/03/15 11:38:12;;;;;;;37.17;19.85;;;;;;;;;;5054703;28;20099;-77
2022/03/15 11:40:39;;;;;;;38.28;20.40;;;;;;;;;;5071250;28;20125;-78
2022/03/15 11:43:09;;;;;;;39.20;21.33;;;;;;;;;;5070880;28;20430;-78
2022/03/15 11:46:04;;;;;;;41.42;21.55;;;;;;;;;;5054071;28;20052;-78
2022/03/15 11:48:34;;;;;;;35.13;20.05;;;;;;;;;;5069516;28;20036;-77
2022/03/15 11:51:19;;;;;;;38.22;20.13;;;;;;;;;;5070658;28;20408;-77
2022/03/15 11:54:06;;;;;;;36.42;18.63;;;;;;;;;;5071018;28;20044;-77
2022/03/15 11:56:39;;;;;;;32.00;17.52;;;;;;;;;;5054245;28;20080;-78
2022/03/15 11:59:05;;;;;;;29.85;17.08;;;;;;;;;;5070771;28;20098;-77
2022/03/15 12:01:33;;;;;;;34.10;17.77;;;;;;;;;;5067266;28;20448;-77
2022/03/15 12:04:02;;;;;;;30.48;17.25;;;;;;;;;;5053973;28;20036;-77
2022/03/15 12:06:30;;;;;;;26.25;15.60;;;;;;;;;;5053744;28;20040;-77
2022/03/15 12:08:57;;;;;;;25.75;14.65;;;;;;;;;;5053846;28;20051;-77
2022/03/15 12:11:37;;;;;;;25.52;15.18;;;;;;;;;;5070422;28;20036;-77
2022/03/15 12:14:04;;;;;;;24.63;13.60;;;;;;;;;;5070453;28;20047;-77
2022/03/15 12:16:35;;;;;;;26.08;15.05;;;;;;;;;;5070358;28;20056;-77
2022/03/15 12:22:01;;;;;;;24.42;12.95;;;;;;;;;;5065908;28;20065;-77
2022/03/15 12:24:37;;;;;;;25.15;13.38;;;;;;;;;;5061504;28;20075;-77
2022/03/15 12:27:04;;;;;;;24.73;13.43;;;;;;;;;;5034549;28;20045;-77
2022/03/15 12:29:31;;;;;;;24.65;12.63;;;;;;;;;;5033782;28;20114;-77
2022/03/15 12:31:57;;;;;;;24.17;13.13;;;;;;;;;;5033628;28;20053;-78
2022/03/15 12:34:25;;;;;;;25.98;11.90;;;;;;;;;;5033489;28;20132;-77
2022/03/15 12:36:53;;;;;;;19.67;10.95;;;;;;;;;;5052980;28;20048;-78
2022/03/15 12:39:20;;;;;;;20.70;10.73;;;;;;;;;;5054028;28;20134;-77
2022/03/15 12:41:47;;;;;;;26.08;11.57;;;;;;;;;;5069911;28;20044;-77
2022/03/15 12:44:14;;;;;;;20.70;11.05;;;;;;;;;;5051108;28;20117;-78
2022/03/15 12:46:41;;;;;;;20.70;11.50;;;;;;;;;;5068667;28;20190;-77
2022/03/15 12:49:08;;;;;;;18.77;11.05;;;;;;;;;;5052217;28;20044;-77
2022/03/15 12:51:38;;;;;;;20.70;10.73;;;;;;;;;;5068495;28;20043;-77
2022/03/15 12:54:06;;;;;;;20.53;10.23;;;;;;;;;;5052051;28;20047;-77
2022/03/15 12:56:32;;;;;;;17.73;10.30;;;;;;;;;;5068848;28;20102;-77
2022/03/15 12:58:59;;;;;;;18.27;11.13;;;;;;;;;;5068432;28;20073;-77
2022/03/15 13:01:26;;;;;;;19.35;10.27;;;;;;;;;;5051814;28;20040;-78
2022/03/15 13:03:53;;;;;;;17.25;10.10;;;;;;;;;;5051822;28;20047;-78
2022/03/15 13:06:20;;;;;;;20.83;11.48;;;;;;;;;;5068534;28;20041;-78
2022/03/15 13:08:55;;;;;;;23.52;12.98;;;;;;;;;;5069465;28;20036;-77
2022/03/15 13:11:22;;;;;;;23.80;11.52;;;;;;;;;;5052123;28;20135;-77
2022/03/15 13:13:48;;;;;;;22.67;12.70;;;;;;;;;;5068603;28;20035;-77
2022/03/15 13:16:14;;;;;;;22.30;11.93;;;;;;;;;;5051750;28;20048;-77
2022/03/15 13:18:42;;;;;;;19.98;12.32;;;;;;;;;;5051809;28;20045;-77
2022/03/15 13:21:10;;;;;;;20.70;12.15;;;;;;;;;;5065926;28;20040;-78
2022/03/15 13:23:41;;;;;;;22.67;12.18;;;;;;;;;;5051675;28;20033;-77
2022/03/15 13:26:12;;;;;;;22.98;11.60;;;;;;;;;;5051978;28;20040;-77
2022/03/15 13:28:38;;;;;;;;;;;;;;;;;;5052057;28;20041;-78
2022/03/15 13:31:09;;;;;;;21.77;12.25;;;;;;;;;;5051574;28;19920;-78
2022/03/15 13:33:40;;;;;;;23.42;12.70;;;;;;;;;;5051834;28;20036;-78
2022/03/15 13:36:06;;;;;;;23.52;14.77;;;;;;;;;;5068301;28;20045;-77
2022/03/15 13:38:33;;;;;;;23.50;12.10;;;;;;;;;;5068794;28;20740;-77
2022/03/15 13:41:00;;;;;;;26.17;11.98;;;;;;;;;;5051411;28;20079;-77
2022/03/15 13:43:28;;;;;;;27.08;12.30;;;;;;;;;;5048841;28;20504;-77
2022/03/15 13:45:54;;;;;;;20.60;10.77;;;;;;;;;;5051717;28;20120;-77
2022/03/15 13:48:31;;;;;;;19.65;10.68;;;;;;;;;;5069140;28;20028;-78
2022/03/15 13:51:03;;;;;;;19.38;11.50;;;;;;;;;;5064703;28;20123;-78
2022/03/15 13:53:31;;;;;;;18.23;10.63;;;;;;;;;;5039693;28;20043;-78
2022/03/15 13:56:06;;;;;;;21.05;10.55;;;;;;;;;;5061546;28;20500;-78
2022/03/15 13:58:32;;;;;;;19.45;10.27;;;;;;;;;;5061979;28;20040;-78
2022/03/15 14:01:03;;;;;;;16.25;9.93;;;;;;;;;;5045893;28;20127;-78
2022/03/15 14:03:30;;;;;;;23.58;11.30;;;;;;;;;;5065429;28;20047;-77
2022/03/15 14:06:03;;;;;;;22.88;10.93;;;;;;;;;;5062660;28;20052;-78
2022/03/15 14:08:30;;;;;;;26.15;12.27;;;;;;;;;;5045076;28;20041;-78
2022/03/15 14:10:56;;;;;;;23.17;12.68;;;;;;;;;;5072369;28;20041;-78
2022/03/15 14:13:23;;;;;;;25.83;12.40;;;;;;;;;;5056091;28;20032;-78
2022/03/15 14:15:49;;;;;;;24.70;13.43;;;;;;;;;;5056534;28;20063;-78
2022/03/15 14:18:25;;;;;;;24.15;13.77;;;;;;;;;;5056814;28;20129;-78
2022/03/15 14:20:52;;;;;;;25.63;12.32;;;;;;;;;;5056637;28;20063;-78
2022/03/15 14:23:18;;;;;;;25.73;12.65;;;;;;;;;;5070154;28;20041;-78
2022/03/15 14:25:45;;;;;;;24.20;13.13;;;;;;;;;;5055438;28;20044;-78